sensor_id;sensor_type;location;lat;lon;timestamp;P1;durP1;ratioP1;P2;durP2;ratioP2
24801;SDS011;12898;50.520;12.152;2023-11-21T00:00:19;7.47;;;2.60;;
24801;SDS011;12898;50.520;12.152;2023-11-21T00:02:45;6.00;;;2.60;;
24801;SDS011;12898;50.520;12.152;2023-11-21T00:05:11;3.92;;;2.30;;
24801;SDS011;12898;50.520;12.152;2023-11-21T00:07:39;5.63;;;2.63;;
24801;SDS011;12898;50.520;12.152;2023-11-21T00:10:07;9.10;;;2.90;;
24801;SDS011;12898;50.520;12.152;2023-11-21T00:12:34;5.53;;;2.38;;
24801;SDS011;12898;50.520;12.152;2023-11-21T00:15:00;6.43;;;2.72;;
24801;SDS011;12898;50.520;12.152;2023-11-21T00:17:26;7.77;;;3.10;;
24801;SDS011;12898;50.520;12.152;2023-11-21T00:19:52;6.88;;;2.65;;
24801;SDS011;12898;50.520;12.152;2023-11-21T00:22:18;4.93;;;2.53;;
24801;SDS011;12898;50.520;12.152;2023-11-21T00:24:44;7.47;;;2.55;;
24801;SDS011;12898;50.520;12.152;2023-11-21T00:27:13;8.10;;;2.90;;
24801;SDS011;12898;50.520;12.152;2023-11-21T00:29:39;5.70;;;2.40;;
24801;SDS011;12898;50.520;12.152;2023-11-21T00:32:05;5.70;;;3.15;;
24801;SDS011;12898;50.520;12.152;2023-11-21T00:34:32;8.40;;;2.53;;
24801;SDS011;12898;50.520;12.152;2023-11-21T00:36:58;4.47;;;2.30;;
24801;SDS011;12898;50.520;12.152;2023-11-21T00:39:24;6.30;;;2.40;;
24801;SDS011;12898;50.520;12.152;2023-11-21T00:41:51;4.47;;;1.85;;
24801;SDS011;12898;50.520;12.152;2023-11-21T00:44:17;4.63;;;2.20;;
24801;SDS011;12898;50.520;12.152;2023-11-21T00:46:43;3.72;;;2.00;;
24801;SDS011;12898;50.520;12.152;2023-11-21T00:49:09;5.18;;;2.03;;
24801;SDS011;12898;50.520;12.152;2023-11-21T00:51:35;4.83;;;2.57;;
24801;SDS011;12898;50.520;12.152;2023-11-21T00:54:01;4.93;;;2.60;;
24801;SDS011;12898;50.520;12.152;2023-11-21T00:56:27;4.70;;;2.33;;
24801;SDS011;12898;50.520;12.152;2023-11-21T00:58:53;6.00;;;2.58;;
24801;SDS011;12898;50.520;12.152;2023-11-21T01:01:19;6.45;;;2.50;;
24801;SDS011;12898;50.520;12.152;2023-11-21T01:03:47;5.50;;;2.50;;
24801;SDS011;12898;50.520;12.152;2023-11-21T01:06:14;6.30;;;2.90;;
24801;SDS011;12898;50.520;12.152;2023-11-21T01:08:40;5.57;;;2.40;;
24801;SDS011;12898;50.520;12.152;2023-11-21T01:11:06;6.57;;;2.47;;
24801;SDS011;12898;50.520;12.152;2023-11-21T01:13:37;5.43;;;2.58;;
24801;SDS011;12898;50.520;12.152;2023-11-21T01:16:06;7.03;;;2.50;;
24801;SDS011;12898;50.520;12.152;2023-11-21T01:18:32;5.20;;;2.40;;
24801;SDS011;12898;50.520;12.152;2023-11-21T01:21:00;4.63;;;2.20;;
24801;SDS011;12898;50.520;12.152;2023-11-21T01:23:25;4.97;;;2.33;;
24801;SDS011;12898;50.520;12.152;2023-11-21T01:25:52;5.43;;;2.50;;
24801;SDS011;12898;50.520;12.152;2023-11-21T01:28:19;7.45;;;3.03;;
24801;SDS011;12898;50.520;12.152;2023-11-21T01:30:45;6.25;;;2.30;;
24801;SDS011;12898;50.520;12.152;2023-11-21T01:33:11;7.00;;;2.60;;
24801;SDS011;12898;50.520;12.152;2023-11-21T01:35:37;4.50;;;2.40;;
24801;SDS011;12898;50.520;12.152;2023-11-21T01:38:03;5.97;;;2.30;;
24801;SDS011;12898;50.520;12.152;2023-11-21T01:40:33;5.18;;;2.20;;
24801;SDS011;12898;50.520;12.152;2023-11-21T01:42:59;5.65;;;2.35;;
24801;SDS011;12898;50.520;12.152;2023-11-21T01:45:27;5.75;;;2.70;;
24801;SDS011;12898;50.520;12.152;2023-11-21T01:47:54;4.07;;;2.20;;
24801;SDS011;12898;50.520;12.152;2023-11-21T01:50:20;4.03;;;2.00;;
24801;SDS011;12898;50.520;12.152;2023-11-21T01:52:47;4.35;;;2.17;;
24801;SDS011;12898;50.520;12.152;2023-11-21T01:55:14;3.20;;;1.85;;
24801;SDS011;12898;50.520;12.152;2023-11-21T01:57:45;4.97;;;1.90;;
24801;SDS011;12898;50.520;12.152;2023-11-21T02:00:12;3.15;;;1.95;;
24801;SDS011;12898;50.520;12.152;2023-11-21T02:02:44;3.20;;;1.80;;
24801;SDS011;12898;50.520;12.152;2023-11-21T02:05:16;4.43;;;1.80;;
24801;SDS011;12898;50.520;12.152;2023-11-21T02:07:44;2.25;;;1.80;;
24801;SDS011;12898;50.520;12.152;2023-11-21T02:10:14;5.38;;;1.98;;
24801;SDS011;12898;50.520;12.152;2023-11-21T02:12:41;4.50;;;2.10;;
24801;SDS011;12898;50.520;12.152;2023-11-21T02:15:12;5.60;;;2.40;;
24801;SDS011;12898;50.520;12.152;2023-11-21T02:17:51;8.30;;;2.13;;
24801;SDS011;12898;50.520;12.152;2023-11-21T02:20:18;4.73;;;2.07;;
24801;SDS011;12898;50.520;12.152;2023-11-21T02:22:49;2.87;;;1.83;;
24801;SDS011;12898;50.520;12.152;2023-11-21T02:25:29;3.97;;;2.08;;
24801;SDS011;12898;50.520;12.152;2023-11-21T02:27:58;7.20;;;2.13;;
24801;SDS011;12898;50.520;12.152;2023-11-21T02:30:26;9.07;;;2.30;;
24801;SDS011;12898;50.520;12.152;2023-11-21T02:32:58;5.33;;;2.30;;
24801;SDS011;12898;50.520;12.152;2023-11-21T02:35:24;6.10;;;2.42;;
24801;SDS011;12898;50.520;12.152;2023-11-21T02:37:53;4.70;;;2.37;;
24801;SDS011;12898;50.520;12.152;2023-11-21T02:40:19;4.60;;;2.10;;
24801;SDS011;12898;50.520;12.152;2023-11-21T02:42:48;5.27;;;2.20;;
24801;SDS011;12898;50.520;12.152;2023-11-21T02:45:18;3.17;;;2.22;;
24801;SDS011;12898;50.520;12.152;2023-11-21T02:47:49;2.90;;;2.07;;
24801;SDS011;12898;50.520;12.152;2023-11-21T02:50:15;4.15;;;1.98;;
24801;SDS011;12898;50.520;12.152;2023-11-21T02:52:40;6.90;;;2.37;;
24801;SDS011;12898;50.520;12.152;2023-11-21T02:55:06;3.70;;;2.10;;
24801;SDS011;12898;50.520;12.152;2023-11-21T02:57:32;5.27;;;2.57;;
24801;SDS011;12898;50.520;12.152;2023-11-21T02:59:58;3.80;;;2.37;;
24801;SDS011;12898;50.520;12.152;2023-11-21T03:02:27;4.45;;;2.47;;
24801;SDS011;12898;50.520;12.152;2023-11-21T03:04:53;6.38;;;2.70;;
24801;SDS011;12898;50.520;12.152;2023-11-21T03:07:19;6.07;;;3.20;;
24801;SDS011;12898;50.520;12.152;2023-11-21T03:09:45;8.73;;;3.27;;
24801;SDS011;12898;50.520;12.152;2023-11-21T03:12:11;6.23;;;3.50;;
24801;SDS011;12898;50.520;12.152;2023-11-21T03:14:37;6.25;;;2.95;;
24801;SDS011;12898;50.520;12.152;2023-11-21T03:17:04;7.33;;;3.33;;
24801;SDS011;12898;50.520;12.152;2023-11-21T03:19:30;6.30;;;3.10;;
24801;SDS011;12898;50.520;12.152;2023-11-21T03:21:56;5.10;;;3.03;;
24801;SDS011;12898;50.520;12.152;2023-11-21T03:24:22;5.90;;;3.03;;
24801;SDS011;12898;50.520;12.152;2023-11-21T03:26:48;6.15;;;3.22;;
24801;SDS011;12898;50.520;12.152;2023-11-21T03:29:15;5.53;;;3.33;;
24801;SDS011;12898;50.520;12.152;2023-11-21T03:31:40;6.10;;;3.30;;
24801;SDS011;12898;50.520;12.152;2023-11-21T03:34:06;8.07;;;2.83;;
24801;SDS011;12898;50.520;12.152;2023-11-21T03:36:36;6.40;;;2.58;;
24801;SDS011;12898;50.520;12.152;2023-11-21T03:39:02;7.23;;;2.63;;
24801;SDS011;12898;50.520;12.152;2023-11-21T03:41:28;7.85;;;2.97;;
24801;SDS011;12898;50.520;12.152;2023-11-21T03:43:53;5.47;;;2.77;;
24801;SDS011;12898;50.520;12.152;2023-11-21T03:46:19;6.57;;;2.60;;
24801;SDS011;12898;50.520;12.152;2023-11-21T03:48:45;4.63;;;2.38;;
24801;SDS011;12898;50.520;12.152;2023-11-21T03:51:11;4.97;;;2.58;;
24801;SDS011;12898;50.520;12.152;2023-11-21T03:53:36;6.90;;;2.63;;
24801;SDS011;12898;50.520;12.152;2023-11-21T03:56:02;4.50;;;2.47;;
24801;SDS011;12898;50.520;12.152;2023-11-21T03:58:29;5.50;;;2.80;;
24801;SDS011;12898;50.520;12.152;2023-11-21T04:00:54;5.85;;;3.08;;
24801;SDS011;12898;50.520;12.152;2023-11-21T04:03:20;5.80;;;3.43;;
24801;SDS011;12898;50.520;12.152;2023-11-21T04:05:46;7.07;;;3.42;;
24801;SDS011;12898;50.520;12.152;2023-11-21T04:08:12;7.13;;;3.00;;
24801;SDS011;12898;50.520;12.152;2023-11-21T04:10:38;6.87;;;3.30;;
24801;SDS011;12898;50.520;12.152;2023-11-21T04:13:04;8.33;;;4.10;;
24801;SDS011;12898;50.520;12.152;2023-11-21T04:15:31;8.13;;;4.67;;
24801;SDS011;12898;50.520;12.152;2023-11-21T04:17:57;8.50;;;4.47;;
24801;SDS011;12898;50.520;12.152;2023-11-21T04:20:23;8.67;;;4.90;;
24801;SDS011;12898;50.520;12.152;2023-11-21T04:22:49;9.70;;;5.00;;
24801;SDS011;12898;50.520;12.152;2023-11-21T04:25:15;10.60;;;5.63;;
24801;SDS011;12898;50.520;12.152;2023-11-21T04:27:42;9.47;;;4.70;;
24801;SDS011;12898;50.520;12.152;2023-11-21T04:30:09;11.03;;;4.80;;
24801;SDS011;12898;50.520;12.152;2023-11-21T04:32:38;11.40;;;5.77;;
24801;SDS011;12898;50.520;12.152;2023-11-21T04:35:04;13.67;;;6.20;;
24801;SDS011;12898;50.520;12.152;2023-11-21T04:37:31;9.75;;;5.30;;
24801;SDS011;12898;50.520;12.152;2023-11-21T04:39:57;10.95;;;6.28;;
24801;SDS011;12898;50.520;12.152;2023-11-21T04:42:22;11.43;;;5.70;;
24801;SDS011;12898;50.520;12.152;2023-11-21T04:44:48;12.38;;;6.05;;
24801;SDS011;12898;50.520;12.152;2023-11-21T04:47:14;12.00;;;6.40;;
24801;SDS011;12898;50.520;12.152;2023-11-21T04:49:43;12.47;;;6.53;;
24801;SDS011;12898;50.520;12.152;2023-11-21T04:52:11;13.95;;;7.00;;
24801;SDS011;12898;50.520;12.152;2023-11-21T04:54:37;13.70;;;6.17;;
24801;SDS011;12898;50.520;12.152;2023-11-21T04:57:05;17.45;;;7.70;;
24801;SDS011;12898;50.520;12.152;2023-11-21T04:59:32;14.27;;;7.93;;
24801;SDS011;12898;50.520;12.152;2023-11-21T05:01:59;15.75;;;8.50;;
24801;SDS011;12898;50.520;12.152;2023-11-21T05:04:28;15.20;;;7.63;;
24801;SDS011;12898;50.520;12.152;2023-11-21T05:06:53;13.43;;;6.70;;
24801;SDS011;12898;50.520;12.152;2023-11-21T05:09:19;13.60;;;6.57;;
24801;SDS011;12898;50.520;12.152;2023-11-21T05:11:47;13.80;;;7.23;;
24801;SDS011;12898;50.520;12.152;2023-11-21T05:14:12;13.07;;;6.50;;
24801;SDS011;12898;50.520;12.152;2023-11-21T05:16:39;11.23;;;6.30;;
24801;SDS011;12898;50.520;12.152;2023-11-21T05:19:04;15.13;;;7.38;;
24801;SDS011;12898;50.520;12.152;2023-11-21T05:21:31;14.43;;;6.97;;
24801;SDS011;12898;50.520;12.152;2023-11-21T05:23:57;11.47;;;5.97;;
24801;SDS011;12898;50.520;12.152;2023-11-21T05:26:23;11.77;;;5.80;;
24801;SDS011;12898;50.520;12.152;2023-11-21T05:28:49;10.50;;;6.27;;
24801;SDS011;12898;50.520;12.152;2023-11-21T05:31:15;11.57;;;5.87;;
24801;SDS011;12898;50.520;12.152;2023-11-21T05:33:41;9.73;;;5.35;;
24801;SDS011;12898;50.520;12.152;2023-11-21T05:36:07;11.70;;;5.85;;
24801;SDS011;12898;50.520;12.152;2023-11-21T05:38:33;9.93;;;5.33;;
24801;SDS011;12898;50.520;12.152;2023-11-21T05:41:00;13.57;;;6.27;;
24801;SDS011;12898;50.520;12.152;2023-11-21T05:43:26;8.93;;;4.93;;
24801;SDS011;12898;50.520;12.152;2023-11-21T05:45:54;9.60;;;5.30;;
24801;SDS011;12898;50.520;12.152;2023-11-21T05:48:20;9.27;;;5.07;;
24801;SDS011;12898;50.520;12.152;2023-11-21T05:50:46;6.90;;;4.17;;
24801;SDS011;12898;50.520;12.152;2023-11-21T05:53:13;10.17;;;5.47;;
24801;SDS011;12898;50.520;12.152;2023-11-21T05:55:41;9.27;;;4.57;;
24801;SDS011;12898;50.520;12.152;2023-11-21T05:58:07;8.77;;;4.57;;
24801;SDS011;12898;50.520;12.152;2023-11-21T06:00:33;10.10;;;4.97;;
24801;SDS011;12898;50.520;12.152;2023-11-21T06:02:58;8.45;;;4.85;;
24801;SDS011;12898;50.520;12.152;2023-11-21T06:05:25;8.37;;;4.30;;
24801;SDS011;12898;50.520;12.152;2023-11-21T06:07:52;6.80;;;4.05;;
24801;SDS011;12898;50.520;12.152;2023-11-21T06:10:22;9.00;;;5.03;;
24801;SDS011;12898;50.520;12.152;2023-11-21T06:12:48;9.63;;;4.70;;
24801;SDS011;12898;50.520;12.152;2023-11-21T06:15:14;7.80;;;4.10;;
24801;SDS011;12898;50.520;12.152;2023-11-21T06:17:41;11.90;;;5.80;;
24801;SDS011;12898;50.520;12.152;2023-11-21T06:20:09;8.40;;;4.70;;
24801;SDS011;12898;50.520;12.152;2023-11-21T06:22:39;8.17;;;4.57;;
24801;SDS011;12898;50.520;12.152;2023-11-21T06:25:09;8.52;;;4.38;;
24801;SDS011;12898;50.520;12.152;2023-11-21T06:27:38;11.13;;;5.37;;
24801;SDS011;12898;50.520;12.152;2023-11-21T06:30:10;10.82;;;5.40;;
24801;SDS011;12898;50.520;12.152;2023-11-21T06:32:37;11.33;;;5.13;;
24801;SDS011;12898;50.520;12.152;2023-11-21T06:35:05;11.57;;;5.70;;
24801;SDS011;12898;50.520;12.152;2023-11-21T06:37:31;13.43;;;6.60;;
24801;SDS011;12898;50.520;12.152;2023-11-21T06:39:58;12.63;;;6.13;;
24801;SDS011;12898;50.520;12.152;2023-11-21T06:42:25;13.83;;;6.30;;
24801;SDS011;12898;50.520;12.152;2023-11-21T06:44:52;12.73;;;6.03;;
24801;SDS011;12898;50.520;12.152;2023-11-21T06:47:19;10.70;;;6.13;;
24801;SDS011;12898;50.520;12.152;2023-11-21T06:49:45;11.13;;;5.60;;
24801;SDS011;12898;50.520;12.152;2023-11-21T06:52:14;10.43;;;5.20;;
24801;SDS011;12898;50.520;12.152;2023-11-21T06:54:40;12.60;;;4.83;;
24801;SDS011;12898;50.520;12.152;2023-11-21T06:57:06;11.53;;;5.80;;
24801;SDS011;12898;50.520;12.152;2023-11-21T06:59:32;9.63;;;5.17;;
24801;SDS011;12898;50.520;12.152;2023-11-21T07:01:58;8.37;;;4.70;;
24801;SDS011;12898;50.520;12.152;2023-11-21T07:04:24;8.47;;;4.47;;
24801;SDS011;12898;50.520;12.152;2023-11-21T07:06:55;9.93;;;4.50;;
24801;SDS011;12898;50.520;12.152;2023-11-21T07:09:21;8.97;;;4.03;;
24801;SDS011;12898;50.520;12.152;2023-11-21T07:11:50;6.43;;;3.63;;
24801;SDS011;12898;50.520;12.152;2023-11-21T07:14:15;8.60;;;3.87;;
24801;SDS011;12898;50.520;12.152;2023-11-21T07:16:42;6.77;;;4.00;;
24801;SDS011;12898;50.520;12.152;2023-11-21T07:19:08;6.77;;;3.47;;
24801;SDS011;12898;50.520;12.152;2023-11-21T07:21:34;7.97;;;3.87;;
24801;SDS011;12898;50.520;12.152;2023-11-21T07:24:01;9.47;;;4.47;;
24801;SDS011;12898;50.520;12.152;2023-11-21T07:26:28;10.70;;;5.43;;
24801;SDS011;12898;50.520;12.152;2023-11-21T07:28:55;9.07;;;4.57;;
24801;SDS011;12898;50.520;12.152;2023-11-21T07:31:21;7.83;;;4.03;;
24801;SDS011;12898;50.520;12.152;2023-11-21T07:33:50;9.50;;;4.40;;
24801;SDS011;12898;50.520;12.152;2023-11-21T07:36:16;8.40;;;4.10;;
24801;SDS011;12898;50.520;12.152;2023-11-21T07:38:46;6.83;;;3.93;;
24801;SDS011;12898;50.520;12.152;2023-11-21T07:41:12;8.70;;;4.10;;
24801;SDS011;12898;50.520;12.152;2023-11-21T07:43:41;7.30;;;4.00;;
24801;SDS011;12898;50.520;12.152;2023-11-21T07:46:07;10.30;;;4.00;;
24801;SDS011;12898;50.520;12.152;2023-11-21T07:48:33;9.90;;;4.93;;
24801;SDS011;12898;50.520;12.152;2023-11-21T07:51:00;10.90;;;5.13;;
24801;SDS011;12898;50.520;12.152;2023-11-21T07:53:28;10.75;;;5.70;;
24801;SDS011;12898;50.520;12.152;2023-11-21T07:56:04;12.32;;;6.00;;
24801;SDS011;12898;50.520;12.152;2023-11-21T07:58:32;10.25;;;5.93;;
24801;SDS011;12898;50.520;12.152;2023-11-21T08:00:59;12.02;;;6.20;;
24801;SDS011;12898;50.520;12.152;2023-11-21T08:03:25;11.43;;;5.93;;
24801;SDS011;12898;50.520;12.152;2023-11-21T08:05:57;11.82;;;5.90;;
24801;SDS011;12898;50.520;12.152;2023-11-21T08:08:24;14.00;;;6.78;;
24801;SDS011;12898;50.520;12.152;2023-11-21T08:10:50;12.73;;;6.15;;
24801;SDS011;12898;50.520;12.152;2023-11-21T08:13:23;15.65;;;6.22;;
24801;SDS011;12898;50.520;12.152;2023-11-21T08:15:49;10.30;;;5.60;;
24801;SDS011;12898;50.520;12.152;2023-11-21T08:18:15;11.48;;;6.07;;
24801;SDS011;12898;50.520;12.152;2023-11-21T08:20:42;11.85;;;5.40;;
24801;SDS011;12898;50.520;12.152;2023-11-21T08:23:12;14.73;;;6.90;;
24801;SDS011;12898;50.520;12.152;2023-11-21T08:25:40;14.25;;;7.18;;
24801;SDS011;12898;50.520;12.152;2023-11-21T08:28:07;12.57;;;6.90;;
24801;SDS011;12898;50.520;12.152;2023-11-21T08:30:33;15.77;;;8.48;;
24801;SDS011;12898;50.520;12.152;2023-11-21T08:33:00;14.07;;;7.75;;
24801;SDS011;12898;50.520;12.152;2023-11-21T08:35:25;13.57;;;7.93;;
24801;SDS011;12898;50.520;12.152;2023-11-21T08:37:51;17.52;;;7.50;;
24801;SDS011;12898;50.520;12.152;2023-11-21T08:40:20;11.07;;;5.10;;
24801;SDS011;12898;50.520;12.152;2023-11-21T08:42:49;12.75;;;5.40;;
24801;SDS011;12898;50.520;12.152;2023-11-21T08:45:17;12.90;;;5.30;;
24801;SDS011;12898;50.520;12.152;2023-11-21T08:47:44;14.52;;;5.30;;
24801;SDS011;12898;50.520;12.152;2023-11-21T08:50:11;11.13;;;5.20;;
24801;SDS011;12898;50.520;12.152;2023-11-21T08:52:40;11.05;;;5.20;;
24801;SDS011;12898;50.520;12.152;2023-11-21T08:55:07;10.00;;;4.97;;
24801;SDS011;12898;50.520;12.152;2023-11-21T08:57:34;15.45;;;5.55;;
24801;SDS011;12898;50.520;12.152;2023-11-21T09:00:01;12.23;;;5.47;;
24801;SDS011;12898;50.520;12.152;2023-11-21T09:02:28;12.93;;;5.78;;
24801;SDS011;12898;50.520;12.152;2023-11-21T09:04:54;14.35;;;6.35;;
24801;SDS011;12898;50.520;12.152;2023-11-21T09:07:20;11.55;;;5.82;;
24801;SDS011;12898;50.520;12.152;2023-11-21T09:09:48;14.23;;;5.70;;
24801;SDS011;12898;50.520;12.152;2023-11-21T09:12:14;13.80;;;5.20;;
24801;SDS011;12898;50.520;12.152;2023-11-21T09:14:40;12.95;;;5.20;;
24801;SDS011;12898;50.520;12.152;2023-11-21T09:17:09;13.18;;;5.97;;
24801;SDS011;12898;50.520;12.152;2023-11-21T09:19:39;15.23;;;5.57;;
24801;SDS011;12898;50.520;12.152;2023-11-21T09:22:06;12.35;;;5.75;;
24801;SDS011;12898;50.520;12.152;2023-11-21T09:24:32;14.38;;;5.15;;
24801;SDS011;12898;50.520;12.152;2023-11-21T09:26:59;13.45;;;5.38;;
24801;SDS011;12898;50.520;12.152;2023-11-21T09:29:28;12.88;;;4.75;;
24801;SDS011;12898;50.520;12.152;2023-11-21T09:31:54;15.43;;;5.60;;
24801;SDS011;12898;50.520;12.152;2023-11-21T09:34:22;14.55;;;5.47;;
24801;SDS011;12898;50.520;12.152;2023-11-21T09:36:47;16.85;;;4.88;;
24801;SDS011;12898;50.520;12.152;2023-11-21T09:39:13;13.25;;;5.32;;
24801;SDS011;12898;50.520;12.152;2023-11-21T09:41:43;11.95;;;5.47;;
24801;SDS011;12898;50.520;12.152;2023-11-21T09:44:45;13.38;;;4.68;;
24801;SDS011;12898;50.520;12.152;2023-11-21T09:47:26;10.63;;;4.20;;
24801;SDS011;12898;50.520;12.152;2023-11-21T09:49:53;10.07;;;4.57;;
24801;SDS011;12898;50.520;12.152;2023-11-21T09:52:25;13.48;;;4.53;;
24801;SDS011;12898;50.520;12.152;2023-11-21T09:54:52;11.60;;;4.78;;
24801;SDS011;12898;50.520;12.152;2023-11-21T09:57:22;14.20;;;5.00;;
24801;SDS011;12898;50.520;12.152;2023-11-21T09:59:53;14.75;;;4.95;;
24801;SDS011;12898;50.520;12.152;2023-11-21T10:02:27;15.90;;;5.35;;
24801;SDS011;12898;50.520;12.152;2023-11-21T10:04:55;15.32;;;5.10;;
24801;SDS011;12898;50.520;12.152;2023-11-21T10:07:21;11.13;;;4.53;;
24801;SDS011;12898;50.520;12.152;2023-11-21T10:09:48;10.45;;;4.80;;
24801;SDS011;12898;50.520;12.152;2023-11-21T10:12:15;10.57;;;4.88;;
24801;SDS011;12898;50.520;12.152;2023-11-21T10:14:42;15.63;;;5.55;;
24801;SDS011;12898;50.520;12.152;2023-11-21T10:17:10;13.20;;;5.43;;
24801;SDS011;12898;50.520;12.152;2023-11-21T10:19:38;14.18;;;5.97;;
24801;SDS011;12898;50.520;12.152;2023-11-21T10:22:05;10.63;;;5.30;;
24801;SDS011;12898;50.520;12.152;2023-11-21T10:24:34;10.95;;;4.40;;
24801;SDS011;12898;50.520;12.152;2023-11-21T10:27:01;13.45;;;4.93;;
24801;SDS011;12898;50.520;12.152;2023-11-21T10:29:29;14.80;;;5.25;;
24801;SDS011;12898;50.520;12.152;2023-11-21T10:31:55;13.52;;;4.47;;
24801;SDS011;12898;50.520;12.152;2023-11-21T10:34:23;13.07;;;4.68;;
24801;SDS011;12898;50.520;12.152;2023-11-21T10:36:49;9.38;;;4.40;;
24801;SDS011;12898;50.520;12.152;2023-11-21T10:39:19;12.98;;;4.75;;
24801;SDS011;12898;50.520;12.152;2023-11-21T10:41:48;12.63;;;5.15;;
24801;SDS011;12898;50.520;12.152;2023-11-21T10:44:18;10.57;;;4.72;;
24801;SDS011;12898;50.520;12.152;2023-11-21T10:46:52;8.85;;;3.80;;
24801;SDS011;12898;50.520;12.152;2023-11-21T10:49:24;8.52;;;4.10;;
24801;SDS011;12898;50.520;12.152;2023-11-21T10:51:51;9.75;;;3.70;;
24801;SDS011;12898;50.520;12.152;2023-11-21T10:54:22;10.52;;;4.07;;
24801;SDS011;12898;50.520;12.152;2023-11-21T10:56:52;9.57;;;3.92;;
24801;SDS011;12898;50.520;12.152;2023-11-21T10:59:22;8.07;;;3.97;;
24801;SDS011;12898;50.520;12.152;2023-11-21T11:01:50;9.93;;;3.83;;
24801;SDS011;12898;50.520;12.152;2023-11-21T11:04:18;10.73;;;3.60;;
24801;SDS011;12898;50.520;12.152;2023-11-21T11:06:44;6.75;;;3.55;;
24801;SDS011;12898;50.520;12.152;2023-11-21T11:09:16;11.48;;;3.65;;
24801;SDS011;12898;50.520;12.152;2023-11-21T11:11:42;6.18;;;3.10;;
24801;SDS011;12898;50.520;12.152;2023-11-21T11:14:11;4.07;;;2.47;;
24801;SDS011;12898;50.520;12.152;2023-11-21T11:16:41;7.00;;;2.92;;
24801;SDS011;12898;50.520;12.152;2023-11-21T11:19:08;8.00;;;3.17;;
24801;SDS011;12898;50.520;12.152;2023-11-21T11:30:24;7.70;;;3.63;;
24801;SDS011;12898;50.520;12.152;2023-11-21T11:36:31;7.75;;;4.50;;
24801;SDS011;12898;50.520;12.152;2023-11-21T11:39:02;7.60;;;4.18;;
24801;SDS011;12898;50.520;12.152;2023-11-21T11:41:30;7.95;;;4.20;;
24801;SDS011;12898;50.520;12.152;2023-11-21T11:44:00;5.82;;;3.83;;
24801;SDS011;12898;50.520;12.152;2023-11-21T11:46:44;9.25;;;4.35;;
24801;SDS011;12898;50.520;12.152;2023-11-21T11:49:23;7.18;;;3.92;;
24801;SDS011;12898;50.520;12.152;2023-11-21T11:54:57;6.68;;;3.90;;
24801;SDS011;12898;50.520;12.152;2023-11-21T11:57:25;7.05;;;4.35;;
24801;SDS011;12898;50.520;12.152;2023-11-21T12:02:41;8.30;;;4.70;;
24801;SDS011;12898;50.520;12.152;2023-11-21T12:05:11;10.27;;;5.10;;
24801;SDS011;12898;50.520;12.152;2023-11-21T12:07:42;11.35;;;5.03;;
24801;SDS011;12898;50.520;12.152;2023-11-21T12:10:18;8.82;;;5.00;;
24801;SDS011;12898;50.520;12.152;2023-11-21T12:12:51;9.70;;;6.07;;
24801;SDS011;12898;50.520;12.152;2023-11-21T12:15:18;8.45;;;5.45;;
24801;SDS011;12898;50.520;12.152;2023-11-21T12:17:45;10.70;;;5.95;;
24801;SDS011;12898;50.520;12.152;2023-11-21T12:20:12;10.73;;;5.97;;
24801;SDS011;12898;50.520;12.152;2023-11-21T12:22:48;12.38;;;5.90;;
24801;SDS011;12898;50.520;12.152;2023-11-21T12:25:16;14.63;;;7.70;;
24801;SDS011;12898;50.520;12.152;2023-11-21T12:27:53;12.23;;;7.28;;
24801;SDS011;12898;50.520;12.152;2023-11-21T12:30:24;13.00;;;6.57;;
24801;SDS011;12898;50.520;12.152;2023-11-21T12:32:56;13.52;;;7.90;;
24801;SDS011;12898;50.520;12.152;2023-11-21T12:35:30;15.15;;;8.35;;
24801;SDS011;12898;50.520;12.152;2023-11-21T12:38:01;13.70;;;7.88;;
24801;SDS011;12898;50.520;12.152;2023-11-21T12:40:28;14.50;;;8.43;;
24801;SDS011;12898;50.520;12.152;2023-11-21T12:42:56;14.52;;;7.88;;
24801;SDS011;12898;50.520;12.152;2023-11-21T12:45:24;13.35;;;7.90;;
24801;SDS011;12898;50.520;12.152;2023-11-21T12:47:59;13.73;;;8.18;;
24801;SDS011;12898;50.520;12.152;2023-11-21T12:50:29;12.95;;;7.75;;
24801;SDS011;12898;50.520;12.152;2023-11-21T12:53:02;15.50;;;9.32;;
24801;SDS011;12898;50.520;12.152;2023-11-21T12:55:46;14.82;;;8.50;;
24801;SDS011;12898;50.520;12.152;2023-11-21T12:58:15;17.52;;;9.45;;
24801;SDS011;12898;50.520;12.152;2023-11-21T13:00:47;17.20;;;9.35;;
24801;SDS011;12898;50.520;12.152;2023-11-21T13:03:15;15.88;;;9.02;;
24801;SDS011;12898;50.520;12.152;2023-11-21T13:05:43;15.60;;;8.88;;
24801;SDS011;12898;50.520;12.152;2023-11-21T13:08:12;14.52;;;8.68;;
24801;SDS011;12898;50.520;12.152;2023-11-21T13:10:39;18.63;;;9.67;;
24801;SDS011;12898;50.520;12.152;2023-11-21T13:13:07;16.73;;;9.10;;
24801;SDS011;12898;50.520;12.152;2023-11-21T13:15:38;16.88;;;9.75;;
24801;SDS011;12898;50.520;12.152;2023-11-21T13:18:08;18.30;;;9.57;;
24801;SDS011;12898;50.520;12.152;2023-11-21T13:20:36;16.15;;;9.55;;
24801;SDS011;12898;50.520;12.152;2023-11-21T13:23:07;18.40;;;9.27;;
24801;SDS011;12898;50.520;12.152;2023-11-21T13:25:34;16.85;;;9.35;;
24801;SDS011;12898;50.520;12.152;2023-11-21T13:28:00;18.10;;;9.82;;
24801;SDS011;12898;50.520;12.152;2023-11-21T13:30:26;18.45;;;9.93;;
24801;SDS011;12898;50.520;12.152;2023-11-21T13:32:58;17.37;;;9.43;;
24801;SDS011;12898;50.520;12.152;2023-11-21T13:35:31;17.63;;;9.47;;
24801;SDS011;12898;50.520;12.152;2023-11-21T13:38:06;18.15;;;10.02;;
24801;SDS011;12898;50.520;12.152;2023-11-21T13:40:37;18.77;;;9.70;;
24801;SDS011;12898;50.520;12.152;2023-11-21T13:43:17;17.33;;;9.70;;
24801;SDS011;12898;50.520;12.152;2023-11-21T13:45:47;19.67;;;9.90;;
24801;SDS011;12898;50.520;12.152;2023-11-21T13:48:25;19.45;;;8.98;;
24801;SDS011;12898;50.520;12.152;2023-11-21T13:50:59;16.70;;;8.65;;
24801;SDS011;12898;50.520;12.152;2023-11-21T13:53:35;20.52;;;9.07;;
24801;SDS011;12898;50.520;12.152;2023-11-21T13:56:03;15.73;;;8.70;;
24801;SDS011;12898;50.520;12.152;2023-11-21T13:58:29;18.10;;;8.93;;
24801;SDS011;12898;50.520;12.152;2023-11-21T14:01:22;16.97;;;8.67;;
24801;SDS011;12898;50.520;12.152;2023-11-21T14:03:58;15.27;;;7.97;;
24801;SDS011;12898;50.520;12.152;2023-11-21T14:06:34;14.90;;;8.20;;
24801;SDS011;12898;50.520;12.152;2023-11-21T14:09:10;12.60;;;7.22;;
24801;SDS011;12898;50.520;12.152;2023-11-21T14:11:38;15.05;;;7.03;;
24801;SDS011;12898;50.520;12.152;2023-11-21T14:14:04;10.43;;;5.85;;
24801;SDS011;12898;50.520;12.152;2023-11-21T14:16:30;8.88;;;3.58;;
24801;SDS011;12898;50.520;12.152;2023-11-21T14:18:56;5.72;;;2.95;;
24801;SDS011;12898;50.520;12.152;2023-11-21T14:21:34;4.47;;;2.20;;
24801;SDS011;12898;50.520;12.152;2023-11-21T14:24:00;3.23;;;2.00;;
24801;SDS011;12898;50.520;12.152;2023-11-21T14:26:26;4.13;;;1.83;;
24801;SDS011;12898;50.520;12.152;2023-11-21T14:28:53;3.65;;;1.60;;
24801;SDS011;12898;50.520;12.152;2023-11-21T14:31:19;4.22;;;1.73;;
24801;SDS011;12898;50.520;12.152;2023-11-21T14:33:45;3.57;;;1.87;;
24801;SDS011;12898;50.520;12.152;2023-11-21T14:36:11;5.03;;;2.60;;
24801;SDS011;12898;50.520;12.152;2023-11-21T14:38:37;5.30;;;3.25;;
24801;SDS011;12898;50.520;12.152;2023-11-21T14:41:04;8.38;;;3.10;;
24801;SDS011;12898;50.520;12.152;2023-11-21T14:43:34;8.17;;;3.53;;
24801;SDS011;12898;50.520;12.152;2023-11-21T14:46:01;6.63;;;3.63;;
24801;SDS011;12898;50.520;12.152;2023-11-21T14:48:28;6.53;;;3.53;;
24801;SDS011;12898;50.520;12.152;2023-11-21T14:51:07;7.27;;;4.00;;